Time;durP1;ratioP1;P1;durP2;ratioP2;P2;SDS_P1;SDS_P2;PMS_P1;PMS_P2;Temp;Humidity;BMP_temperature;BMP_pressure;BME280_temperature;BME280_humidity;BME280_pressure;Samples;Min_cycle;Max_cycle;Signal;HPM_P1;HPM_P2
2023/10/09 00:01:52;;;;;;;;;;;;;;;14.89;72.90;98572.66;5103403;27;20010;-62
2023/10/09 00:04:42;;;;;;;;;;;;;;;14.92;72.72;98569.28;5101158;27;19924;-62
2023/10/09 00:07:31;;;;;;;;;;;;;;;14.92;72.67;98570.09;5103024;27;19966;-62
2023/10/09 00:10:21;;;;;;;;;;;;;;;14.90;72.73;98566.06;5102752;27;20041;-62
2023/10/09 00:13:09;;;;;;;;;;;;;;;14.88;72.72;98568.31;5105569;28;19924;-62
2023/10/09 00:16:01;;;;;;;;;;;;;;;14.87;72.81;98566.72;5109695;28;19924;-62
2023/10/09 00:18:53;;;;;;;;;;;;;;;14.87;72.78;98569.47;5111390;28;19924;-62
2023/10/09 00:21:41;;;;;;;;;;;;;;;14.89;72.78;98558.97;5098576;28;19932;-62
2023/10/09 00:24:29;;;;;;;;;;;;;;;14.89;72.58;98558.97;5110537;28;19940;-62
2023/10/09 00:27:22;;;;;;;;;;;;;;;14.90;72.40;98555.13;5107489;28;19969;-63
2023/10/09 00:30:15;;;;;;;;;;;;;;;14.93;72.31;98559.94;5104256;28;19930;-62
2023/10/09 00:33:07;;;;;;;;;;;;;;;14.88;72.79;98543.69;5108798;28;20341;-62
2023/10/09 00:35:58;;;;;;;;;;;;;;;14.89;72.59;98537.09;5123069;27;20015;-62
2023/10/09 00:38:54;;;;;;;;;;;;;;;14.91;72.62;98534.81;5103295;28;19934;-62
2023/10/09 00:41:45;;;;;;;;;;;;;;;14.88;72.41;98536.28;5097435;28;20840;-61
2023/10/09 00:44:38;;;;;;;;;;;;;;;14.88;72.58;98524.56;5098042;28;19927;-62
2023/10/09 00:47:33;;;;;;;;;;;;;;;14.87;72.68;98514.75;5087854;28;19934;-63
2023/10/09 00:50:23;;;;;;;;;;;;;;;14.84;72.76;98509.91;5103196;28;20014;-62
2023/10/09 00:53:18;;;;;;;;;;;;;;;14.83;72.96;98511.03;5094674;28;19931;-62
2023/10/09 00:56:18;;;;;;;;;;;;;;;14.84;72.88;98507.16;5111287;28;19928;-62
2023/10/09 00:59:14;;;;;;;;;;;;;;;14.85;72.79;98495.09;5103056;28;19935;-62
2023/10/09 01:02:06;;;;;;;;;;;;;;;14.85;72.92;98492.38;5106798;28;19928;-62
2023/10/09 01:04:55;;;;;;;;;;;;;;;14.85;73.02;98492.38;5086718;28;19934;-63
2023/10/09 01:07:44;;;;;;;;;;;;;;;14.85;72.81;98495.91;5091681;28;19923;-62
2023/10/09 01:10:50;;;;;;;;;;;;;;;14.89;72.54;98487.84;5089897;28;20079;-62
2023/10/09 01:13:52;;;;;;;;;;;;;;;14.85;72.77;98487.69;5102186;28;19928;-61
2023/10/09 01:16:42;;;;;;;;;;;;;;;14.83;72.98;98492.69;5093698;27;20002;-63
2023/10/09 01:19:33;;;;;;;;;;;;;;;14.83;72.79;98484.50;5119184;27;20041;-62
2023/10/09 01:22:22;;;;;;;;;;;;;;;14.84;72.70;98486.09;5103869;27;19924;-62
2023/10/09 01:29:14;;;;;;;;;;;;;;;14.80;72.96;98473.38;5106533;28;19950;-62
2023/10/09 01:32:27;;;;;;;;;;;;;;;14.79;73.09;98467.13;5110062;27;19927;-62
2023/10/09 01:35:21;;;;;;;;;;;;;;;14.79;72.87;98469.84;5108254;27;19924;-62
2023/10/09 01:38:13;;;;;;;;;;;;;;;14.77;72.89;98463.09;5108029;27;20018;-61
2023/10/09 01:41:07;;;;;;;;;;;;;;;14.75;73.24;98455.22;5105265;28;19932;-62
2023/10/09 01:44:00;;;;;;;;;;;;;;;14.76;73.07;98462.31;5101575;28;19973;-63
2023/10/09 01:46:54;;;;;;;;;;;;;;;14.77;73.23;98449.44;5101795;27;19923;-62
2023/10/09 01:49:43;;;;;;;;;;;;;;;14.78;73.11;98442.84;5113680;27;19927;-62
2023/10/09 01:52:31;;;;;;;;;;;;;;;14.75;73.46;98444.25;5104256;27;19983;-62
2023/10/09 01:55:34;;;;;;;;;;;;;;;14.76;73.19;98429.50;5106488;27;19928;-62
2023/10/09 01:58:27;;;;;;;;;;;;;;;14.76;73.47;98437.69;5104009;27;20041;-63
2023/10/09 02:01:15;;;;;;;;;;;;;;;14.79;73.41;98430.75;5088213;28;19927;-63
2023/10/09 02:04:06;;;;;;;;;;;;;;;14.78;73.29;98435.44;5109649;27;19923;-62
2023/10/09 02:06:55;;;;;;;;;;;;;;;14.78;73.29;98431.88;5092545;28;19951;-62
2023/10/09 02:09:47;;;;;;;;;;;;;;;14.77;73.37;98436.56;5091315;28;20376;-62
2023/10/09 02:12:36;;;;;;;;;;;;;;;14.62;74.08;98435.13;5106369;27;19924;-62
2023/10/09 02:15:40;;;;;;;;;;;;;;;14.66;73.87;98430.63;5102868;28;20293;-62
2023/10/09 02:18:52;;;;;;;;;;;;;;;14.70;73.88;98429.97;5080545;27;19931;-62
2023/10/09 02:21:42;;;;;;;;;;;;;;;14.72;73.66;98420.31;5103878;28;20041;-63
2023/10/09 02:27:45;;;;;;;;;;;;;;;14.72;73.85;98428.53;5104920;27;20320;-62
2023/10/09 02:30:34;;;;;;;;;;;;;;;14.73;73.74;98421.13;5103062;27;20011;-62
2023/10/09 02:33:27;;;;;;;;;;;;;;;14.75;73.75;98416.13;5107864;27;19927;-63
2023/10/09 02:36:15;;;;;;;;;;;;;;;14.74;73.97;98415.31;5101452;27;19927;-62
2023/10/09 02:39:06;;;;;;;;;;;;;;;14.74;73.77;98415.31;5095368;27;19928;-62
2023/10/09 02:41:58;;;;;;;;;;;;;;;14.73;73.95;98408.25;5119076;27;19935;-62
2023/10/09 02:44:49;;;;;;;;;;;;;;;14.75;73.83;98410.66;5101174;27;20016;-62
2023/10/09 02:47:40;;;;;;;;;;;;;;;14.75;74.04;98407.91;5107451;27;19938;-65
2023/10/09 02:50:34;;;;;;;;;;;;;;;14.76;73.83;98404.06;5107903;27;19928;-62
2023/10/09 02:53:29;;;;;;;;;;;;;;;14.77;73.70;98401.00;5105063;28;19927;-64
2023/10/09 02:56:23;;;;;;;;;;;;;;;14.80;73.86;98403.06;5108322;27;19924;-62
2023/10/09 02:59:17;;;;;;;;;;;;;;;14.80;73.61;98403.06;5105076;27;19923;-62
2023/10/09 03:02:08;;;;;;;;;;;;;;;14.81;73.62;98407.44;5105663;28;19931;-66
2023/10/09 03:04:58;;;;;;;;;;;;;;;14.80;73.74;98408.53;5105661;27;19923;-62
2023/10/09 03:07:46;;;;;;;;;;;;;;;14.78;73.86;98399.88;5104824;27;20084;-62
2023/10/09 03:10:38;;;;;;;;;;;;;;;14.75;73.89;98405.19;5090755;27;19973;-62
2023/10/09 03:13:28;;;;;;;;;;;;;;;14.68;74.35;98402.94;5109098;27;19969;-62
2023/10/09 03:16:19;;;;;;;;;;;;;;;14.60;74.70;98403.78;5105337;27;20432;-61
2023/10/09 03:19:11;;;;;;;;;;;;;;;14.53;75.06;98403.47;5107748;27;19950;-62
2023/10/09 03:22:00;;;;;;;;;;;;;;;14.51;75.02;98406.53;5097269;27;19938;-63
2023/10/09 03:24:49;;;;;;;;;;;;;;;14.50;74.94;98396.72;5103146;27;19985;-62
2023/10/09 03:27:41;;;;;;;;;;;;;;;14.51;75.14;98395.59;5109306;27;19928;-61
2023/10/09 03:30:32;;;;;;;;;;;;;;;14.57;74.71;98388.81;5102019;27;19931;-62
2023/10/09 03:33:20;;;;;;;;;;;;;;;14.60;74.52;98385.44;5117177;27;19958;-62
2023/10/09 03:36:10;;;;;;;;;;;;;;;14.63;74.16;98394.91;5090311;28;19931;-62
2023/10/09 03:38:59;;;;;;;;;;;;;;;14.64;74.44;98389.13;5103765;28;19932;-62
2023/10/09 03:41:47;;;;;;;;;;;;;;;14.67;73.95;98387.69;5106901;27;19932;-61
2023/10/09 03:44:41;;;;;;;;;;;;;;;14.67;74.05;98383.00;5102259;27;19924;-63
2023/10/09 03:47:31;;;;;;;;;;;;;;;14.65;73.88;98382.53;5099842;27;20266;-62
2023/10/09 03:50:26;;;;;;;;;;;;;;;14.67;73.85;98374.00;5110425;27;19934;-62
2023/10/09 03:53:15;;;;;;;;;;;;;;;14.62;74.21;98371.44;5100471;28;19976;-61
2023/10/09 03:56:05;;;;;;;;;;;;;;;14.52;74.16;98372.59;5097969;27;19924;-62
2023/10/09 03:58:54;;;;;;;;;;;;;;;14.48;74.59;98374.38;5100967;27;20030;-63
2023/10/09 04:01:43;;;;;;;;;;;;;;;14.47;74.69;98375.50;5099503;28;19932;-62
2023/10/09 04:04:34;;;;;;;;;;;;;;;14.47;74.51;98370.03;5104399;28;20056;-62
2023/10/09 04:07:22;;;;;;;;;;;;;;;14.44;74.41;98370.66;5102395;28;20424;-62
2023/10/09 04:13:17;;;;;;;;;;;;;;;14.45;74.09;98363.25;5106625;28;19928;-62
2023/10/09 04:16:28;;;;;;;;;;;;;;;14.46;73.89;98370.34;5102681;28;19924;-62
2023/10/09 04:19:21;;;;;;;;;;;;;;;14.46;74.04;98376.59;5107486;28;19928;-62
2023/10/09 04:22:25;;;;;;;;;;;;;;;14.46;73.74;98365.66;5108212;28;19958;-62
2023/10/09 04:25:16;;;;;;;;;;;;;;;14.46;73.65;98371.13;5104733;28;19931;-62
2023/10/09 04:28:11;;;;;;;;;;;;;;;14.47;73.57;98366.47;5110271;28;19923;-62
2023/10/09 04:31:06;;;;;;;;;;;;;;;14.38;73.91;98366.47;5097612;28;20005;-62
2023/10/09 04:34:22;;;;;;;;;;;;;;;14.26;74.50;98367.16;5100047;28;19924;-62
2023/10/09 04:37:36;;;;;;;;;;;;;;;14.28;74.46;98364.09;5104741;28;20389;-62
2023/10/09 04:43:27;;;;;;;;;;;;;;;14.28;73.97;98353.97;5110092;28;19950;-62
2023/10/09 04:46:23;;;;;;;;;;;;;;;14.30;73.84;98350.91;5101241;28;19924;-62
2023/10/09 04:49:26;;;;;;;;;;;;;;;14.28;73.78;98342.25;5106961;28;19924;-62
2023/10/09 04:52:19;;;;;;;;;;;;;;;14.20;73.94;98341.13;5106799;28;19923;-62
2023/10/09 04:55:17;;;;;;;;;;;;;;;14.22;73.88;98343.53;5108062;27;19951;-62
2023/10/09 04:58:13;;;;;;;;;;;;;;;14.05;74.68;98350.63;5110625;27;19931;-62
2023/10/09 05:01:12;;;;;;;;;;;;;;;14.07;74.85;98345.66;5100811;28;20305;-62
2023/10/09 05:04:04;;;;;;;;;;;;;;;14.11;74.41;98351.25;5114364;27;19935;-64
2023/10/09 05:06:57;;;;;;;;;;;;;;;14.14;74.14;98347.88;5108736;27;19924;-63
2023/10/09 05:10:08;;;;;;;;;;;;;;;14.13;73.94;98344.34;5106872;28;19928;-62
2023/10/09 05:12:56;;;;;;;;;;;;;;;14.14;73.92;98345.94;5109432;27;20406;-62
2023/10/09 05:15:51;;;;;;;;;;;;;;;14.15;73.74;98349.47;5102598;27;19923;-62
2023/10/09 05:18:41;;;;;;;;;;;;;;;14.17;73.74;98360.91;5107636;27;19928;-62
2023/10/09 05:21:36;;;;;;;;;;;;;;;14.15;73.76;98350.28;5112983;27;19924;-62
2023/10/09 05:24:26;;;;;;;;;;;;;;;14.17;73.68;98352.72;5102441;27;19923;-62
2023/10/09 05:27:45;;;;;;;;;;;;;;;14.15;73.82;98350.28;5105696;27;19928;-63
2023/10/09 05:30:33;;;;;;;;;;;;;;;14.16;73.63;98360.09;5113880;27;19931;-62
2023/10/09 05:33:29;;;;;;;;;;;;;;;14.18;73.55;98362.50;5102025;27;19927;-63
2023/10/09 05:36:31;;;;;;;;;;;;;;;14.14;73.47;98376.00;5108150;27;19931;-63
2023/10/09 05:39:40;;;;;;;;;;;;;;;14.14;73.46;98376.00;5099339;27;19935;-62
2023/10/09 05:42:42;;;;;;;;;;;;;;;14.16;73.35;98381.16;5094905;28;19931;-63
2023/10/09 05:48:55;;;;;;;;;;;;;;;14.12;73.38;98367.34;5106412;28;19935;-62
2023/10/09 05:51:42;;;;;;;;;;;;;;;14.12;73.51;98364.59;5098410;28;19970;-63
2023/10/09 06:04:15;;;;;;;;;;;;;;;13.94;74.12;98371.19;5080297;28;19928;-62
2023/10/09 06:07:11;;;;;;;;;;;;;;;13.88;74.52;98361.56;5085397;28;20693;-63
2023/10/09 06:10:10;;;;;;;;;;;;;;;13.95;74.33;98361.06;5086891;28;19924;-62
2023/10/09 06:13:03;;;;;;;;;;;;;;;13.99;73.94;98371.03;5084513;28;20305;-62
2023/10/09 06:16:09;;;;;;;;;;;;;;;14.06;73.99;98378.75;5085651;28;20422;-62
2023/10/09 06:19:11;;;;;;;;;;;;;;;14.06;73.85;98370.53;5071617;28;19932;-61
2023/10/09 06:22:56;;;;;;;;;;;;;;;14.09;73.97;98376.16;5078029;28;19941;-62
2023/10/09 06:25:32;;;;;;;;;;;;;;;14.13;73.49;98368.94;5079260;28;19924;-61
2023/10/09 06:28:32;;;;;;;;;;;;;;;14.14;73.53;98367.81;5092661;28;19928;-61
2023/10/09 06:31:46;;;;;;;;;;;;;;;14.16;73.51;98362.81;5086504;28;19927;-61
2023/10/09 06:34:39;;;;;;;;;;;;;;;14.21;73.75;98369.25;5085338;28;20036;-62
2023/10/09 06:37:38;;;;;;;;;;;;;;;14.22;73.43;98370.84;5084734;28;20003;-61
2023/10/09 06:43:34;;;;;;;;;;;;;;;14.24;73.52;98379.53;5089884;28;19947;-61
2023/10/09 06:46:43;;;;;;;;;;;;;;;14.25;73.35;98371.00;5079758;28;20025;-61
2023/10/09 06:49:33;;;;;;;;;;;;;;;14.22;73.63;98374.41;5088173;28;19956;-62
2023/10/09 06:52:57;;;;;;;;;;;;;;;14.19;74.22;98375.03;5084071;28;19928;-61
2023/10/09 06:55:37;;;;;;;;;;;;;;;14.16;74.26;98376.47;5085790;28;19928;-61
2023/10/09 06:58:27;;;;;;;;;;;;;;;14.16;74.26;98372.94;5081309;28;20011;-61
2023/10/09 07:01:25;;;;;;;;;;;;;;;14.13;74.38;98379.88;5089401;28;19932;-62
2023/10/09 07:04:19;;;;;;;;;;;;;;;14.14;74.77;98381.47;5099574;27;19985;-61
2023/10/09 07:07:09;;;;;;;;;;;;;;;14.18;74.88;98389.84;5108871;27;19958;-63
2023/10/09 07:13:07;;;;;;;;;;;;;;;14.27;74.26;98393.34;5100663;27;22697;-61
2023/10/09 07:19:09;;;;;;;;;;;;;;;14.29;74.23;98398.50;5105007;27;20300;-62
2023/10/09 07:22:02;;;;;;;;;;;;;;;14.35;73.92;98391.75;5107434;27;19935;-61
2023/10/09 07:24:57;;;;;;;;;;;;;;;14.38;73.83;98391.91;5097860;28;19973;-62
2023/10/09 07:27:48;;;;;;;;;;;;;;;14.46;73.58;98398.47;5098545;27;19935;-62
2023/10/09 07:30:38;;;;;;;;;;;;;;;14.51;73.45;98406.53;5105152;27;19924;-62
2023/10/09 07:33:34;;;;;;;;;;;;;;;14.63;73.60;98414.06;5100333;28;19923;-61
2023/10/09 07:36:34;;;;;;;;;;;;;;;14.67;73.54;98415.81;5104451;27;19927;-61
2023/10/09 07:39:23;;;;;;;;;;;;;;;14.75;73.11;98418.84;5107463;27;20091;-61
2023/10/09 07:42:26;;;;;;;;;;;;;;;14.81;73.00;98423.84;5103057;28;20533;-61
2023/10/09 07:48:25;;;;;;;;;;;;;;;14.93;72.86;98423.97;5108862;28;19931;-61
2023/10/09 07:51:13;;;;;;;;;;;;;;;15.02;72.75;98429.41;5105226;28;19928;-61
2023/10/09 07:54:07;;;;;;;;;;;;;;;15.11;72.69;98429.34;5103154;28;19936;-61
2023/10/09 07:57:08;;;;;;;;;;;;;;;15.13;72.17;98427.91;5098342;27;19931;-61
2023/10/09 08:00:00;;;;;;;;;;;;;;;15.23;72.27;98428.66;5103444;27;20456;-60
2023/10/09 08:03:00;;;;;;;;;;;;;;;15.30;72.11;98434.44;5104621;28;19935;-61
2023/10/09 08:05:48;;;;;;;;;;;;;;;15.35;72.07;98437.00;5099776;28;20022;-61
2023/10/09 08:09:16;;;;;;;;;;;;;;;15.40;72.08;98442.28;5107707;28;19924;-61
2023/10/09 08:14:59;;;;;;;;;;;;;;;15.54;70.93;98433.81;5100902;28;19934;-61
2023/10/09 08:17:50;;;;;;;;;;;;;;;15.54;70.66;98436.56;5099436;28;19935;-62
2023/10/09 08:21:19;;;;;;;;;;;;;;;15.56;70.30;98448.81;5103555;28;19928;-61
2023/10/09 08:24:04;;;;;;;;;;;;;;;15.64;70.44;98447.16;5097808;28;20335;-61
2023/10/09 08:27:28;;;;;;;;;;;;;;;15.69;70.21;98445.03;5102867;27;20026;-63
2023/10/09 08:30:12;;;;;;;;;;;;;;;15.78;70.45;98441.44;5097242;27;20568;-61
2023/10/09 08:33:28;;;;;;;;;;;;;;;15.89;70.63;98448.13;5106788;28;19931;-61
2023/10/09 08:36:22;;;;;;;;;;;;;;;15.95;69.44;98446.81;5096378;27;20399;-63
2023/10/09 08:39:17;;;;;;;;;;;;;;;16.05;68.31;98451.09;5102655;28;21046;-61
2023/10/09 08:42:08;;;;;;;;;;;;;;;16.11;67.66;98456.03;5098579;28;20782;-61
2023/10/09 08:45:00;;;;;;;;;;;;;;;16.17;66.84;98460.19;5105813;27;20633;-61
2023/10/09 08:47:49;;;;;;;;;;;;;;;16.24;66.08;98454.16;5102005;27;19987;-61
2023/10/09 08:50:37;;;;;;;;;;;;;;;16.27;65.61;98463.66;5088307;27;19930;-62
2023/10/09 08:53:27;;;;;;;;;;;;;;;16.31;65.32;98462.66;5111377;27;19987;-61
2023/10/09 08:56:19;;;;;;;;;;;;;;;16.35;64.97;98466.34;5104735;28;20450;-63
2023/10/09 08:59:07;;;;;;;;;;;;;;;16.38;64.77;98460.16;5106694;27;20420;-62
2023/10/09 09:01:59;;;;;;;;;;;;;;;16.43;65.12;98457.22;5109639;27;20270;-62
2023/10/09 09:04:51;;;;;;;;;;;;;;;16.53;65.25;98464.22;5109367;27;19939;-62
2023/10/09 09:07:42;;;;;;;;;;;;;;;16.57;65.16;98454.19;5108497;27;19924;-62
2023/10/09 09:10:36;;;;;;;;;;;;;;;16.65;65.13;98452.50;5111925;27;20332;-62
2023/10/09 09:13:24;;;;;;;;;;;;;;;16.68;64.58;98447.16;5107003;28;19928;-61
2023/10/09 09:16:16;;;;;;;;;;;;;;;16.78;64.78;98445.97;5104311;28;19939;-63
2023/10/09 09:19:17;;;;;;;;;;;;;;;16.86;63.30;98452.47;5108910;28;19938;-63
2023/10/09 09:22:12;;;;;;;;;;;;;;;16.89;63.22;98468.28;5106191;27;19950;-64
2023/10/09 09:25:09;;;;;;;;;;;;;;;16.90;63.19;98464.38;5106790;28;19932;-63
2023/10/09 09:28:09;;;;;;;;;;;;;;;16.93;63.76;98464.50;5103663;27;19923;-63
2023/10/09 09:31:02;;;;;;;;;;;;;;;16.96;63.75;98468.50;5107828;27;19923;-63
2023/10/09 09:33:58;;;;;;;;;;;;;;;16.99;64.04;98478.78;5107635;27;19963;-62
2023/10/09 09:36:53;;;;;;;;;;;;;;;17.00;64.96;98485.91;5104431;27;19931;-63
2023/10/09 09:39:43;;;;;;;;;;;;;;;17.00;65.58;98463.97;5102716;27;19930;-63
2023/10/09 09:42:34;;;;;;;;;;;;;;;17.00;67.17;98488.66;5107060;27;20289;-62
2023/10/09 09:45:24;;;;;;;;;;;;;;;16.97;67.58;98481.09;5110860;27;19932;-62
2023/10/09 09:48:16;;;;;;;;;;;;;;;16.97;67.71;98475.59;5100597;27;19939;-62
2023/10/09 09:51:05;;;;;;;;;;;;;;;16.96;67.90;98488.53;5103149;27;19923;-64
2023/10/09 09:53:54;;;;;;;;;;;;;;;16.96;67.76;98482.25;5106563;27;20015;-63
2023/10/09 09:56:42;;;;;;;;;;;;;;;16.98;68.12;98479.94;5107600;27;19963;-64
2023/10/09 09:59:30;;;;;;;;;;;;;;;17.00;68.60;98480.44;5099638;27;19933;-64
2023/10/09 10:02:22;;;;;;;;;;;;;;;17.00;69.04;98478.47;5087187;27;20036;-64
2023/10/09 10:05:11;;;;;;;;;;;;;;;17.03;68.89;98490.72;5072397;28;19928;-63
2023/10/09 10:08:00;;;;;;;;;;;;;;;17.04;69.22;98492.31;5068999;28;19932;-64
2023/10/09 10:10:49;;;;;;;;;;;;;;;17.04;69.49;98492.31;5063965;28;20011;-64
2023/10/09 10:14:03;;;;;;;;;;;;;;;17.07;69.68;98496.34;5059841;28;19932;-64
2023/10/09 10:17:17;;;;;;;;;;;;;;;17.07;69.88;98488.91;5058882;28;20328;-63
2023/10/09 10:20:26;;;;;;;;;;;;;;;17.10;69.56;98485.47;5060279;28;19924;-64
2023/10/09 10:23:17;;;;;;;;;;;;;;;17.12;69.89;98488.69;5059722;28;20019;-64
2023/10/09 10:26:17;;;;;;;;;;;;;;;17.14;69.77;98491.88;5060429;28;20298;-63
2023/10/09 10:29:32;;;;;;;;;;;;;;;17.17;69.72;98480.22;5073034;28;20082;-63
2023/10/09 10:32:23;;;;;;;;;;;;;;;17.18;69.91;98479.06;5062059;28;20390;-63
2023/10/09 10:35:15;;;;;;;;;;;;;;;17.19;69.88;98477.13;5063419;28;19975;-64
2023/10/09 10:38:11;;;;;;;;;;;;;;;17.21;69.89;98475.66;5056022;28;19935;-64
2023/10/09 10:41:12;;;;;;;;;;;;;;;17.22;69.77;98455.28;5059989;28;20613;-65
2023/10/09 10:44:33;;;;;;;;;;;;;;;17.25;69.40;98460.09;5057253;28;19925;-65
2023/10/09 10:47:22;;;;;;;;;;;;;;;17.28;69.14;98462.16;5061030;28;19978;-64
2023/10/09 10:50:34;;;;;;;;;;;;;;;17.33;69.64;98455.66;5062472;28;20441;-64
2023/10/09 10:53:22;;;;;;;;;;;;;;;17.35;69.45;98445.09;5056483;28;19932;-64
2023/10/09 10:56:18;;;;;;;;;;;;;;;17.39;69.10;98437.00;5058930;28;20019;-64
2023/10/09 10:59:12;;;;;;;;;;;;;;;17.41;68.74;98440.19;5062162;28;19924;-64
2023/10/09 11:02:22;;;;;;;;;;;;;;;17.42;68.73;98417.09;5068301;28;20044;-63
2023/10/09 11:05:23;;;;;;;;;;;;;;;17.41;68.74;98426.44;5060211;28;19925;-64
2023/10/09 11:08:13;;;;;;;;;;;;;;;17.41;68.46;98430.00;5056673;28;19931;-65
2023/10/09 11:11:15;;;;;;;;;;;;;;;17.42;68.84;98425.34;5063473;28;19933;-64
2023/10/09 11:14:14;;;;;;;;;;;;;;;17.43;67.51;98418.69;5062464;28;19981;-64
2023/10/09 11:17:23;;;;;;;;;;;;;;;17.45;67.28;98414.44;5066519;28;19924;-64
2023/10/09 11:20:25;;;;;;;;;;;;;;;17.47;66.93;98420.41;5061423;28;20045;-64
2023/10/09 11:23:15;;;;;;;;;;;;;;;17.52;66.47;98431.16;5055500;28;19936;-65
2023/10/09 11:26:21;;;;;;;;;;;;;;;17.57;66.75;98432.84;5062860;28;20011;-64
2023/10/09 11:29:14;;;;;;;;;;;;;;;17.63;65.28;98433.41;5059041;28;19936;-64
2023/10/09 11:32:05;;;;;;;;;;;;;;;17.67;64.78;98442.59;5057184;28;19967;-64
2023/10/09 11:35:08;;;;;;;;;;;;;;;17.68;64.62;98449.69;5066051;28;20066;-64
2023/10/09 11:37:56;;;;;;;;;;;;;;;17.69;64.59;98460.34;5063848;28;19924;-64
2023/10/09 11:41:04;;;;;;;;;;;;;;;17.68;63.92;98469.72;5065490;28;20400;-64
2023/10/09 11:43:53;;;;;;;;;;;;;;;17.68;64.69;98466.97;5056640;28;19924;-64
2023/10/09 11:46:53;;;;;;;;;;;;;;;17.68;64.82;98433.97;5064282;28;19929;-64
2023/10/09 11:49:47;;;;;;;;;;;;;;;17.69;65.35;98424.63;5067950;28;19935;-64
2023/10/09 11:52:37;;;;;;;;;;;;;;;17.72;65.29;98426.69;5058286;28;19960;-64
2023/10/09 11:55:25;;;;;;;;;;;;;;;17.74;65.67;98432.66;5051614;28;19940;-65
2023/10/09 11:58:13;;;;;;;;;;;;;;;17.76;64.51;98451.53;5056498;28;19928;-64
2023/10/09 12:01:16;;;;;;;;;;;;;;;17.77;63.68;98475.91;5062146;28;19932;-65
2023/10/09 12:04:09;;;;;;;;;;;;;;;17.79;63.00;98492.09;5080790;28;19924;-64
2023/10/09 12:07:06;;;;;;;;;;;;;;;17.80;63.37;98507.44;5099375;27;20613;-64
2023/10/09 12:09:56;;;;;;;;;;;;;;;17.79;63.72;98527.81;5103793;28;19939;-64
2023/10/09 12:12:46;;;;;;;;;;;;;;;17.76;64.06;98520.25;5098362;28;20096;-63
2023/10/09 12:15:37;;;;;;;;;;;;;;;17.76;64.35;98543.03;5101739;28;20084;-64
2023/10/09 12:18:25;;;;;;;;;;;;;;;17.75;64.30;98532.41;5099316;28;19934;-65
2023/10/09 12:21:15;;;;;;;;;;;;;;;17.75;64.42;98519.44;5105009;28;19923;-64
2023/10/09 12:24:11;;;;;;;;;;;;;;;17.75;64.76;98493.91;5100179;28;19931;-64
2023/10/09 12:27:00;;;;;;;;;;;;;;;17.76;65.55;98479.81;5100696;28;20010;-64
2023/10/09 12:29:49;;;;;;;;;;;;;;;17.78;65.47;98427.25;5100983;28;19963;-64
2023/10/09 12:32:37;;;;;;;;;;;;;;;17.76;66.38;98397.38;5101033;28;19928;-64
2023/10/09 12:35:25;;;;;;;;;;;;;;;17.79;66.53;98360.97;5105256;28;20318;-64
2023/10/09 12:38:18;;;;;;;;;;;;;;;17.85;66.85;98338.75;5105053;28;19924;-64
2023/10/09 12:41:18;;;;;;;;;;;;;;;17.86;67.23;98323.84;5099869;28;19927;-63
2023/10/09 12:44:14;;;;;;;;;;;;;;;17.87;67.42;98331.72;5105055;28;19924;-64
2023/10/09 12:47:04;;;;;;;;;;;;;;;17.88;66.29;98324.28;5106126;28;20532;-64
2023/10/09 12:49:53;;;;;;;;;;;;;;;17.90;66.84;98320.06;5100246;28;19924;-64
2023/10/09 12:52:42;;;;;;;;;;;;;;;17.92;65.87;98319.69;5103721;28;19939;-64
2023/10/09 12:55:32;;;;;;;;;;;;;;;17.92;63.84;98314.19;5104392;28;19924;-64
2023/10/09 12:58:21;;;;;;;;;;;;;;;17.94;63.70;98314.63;5102271;28;19931;-64
2023/10/09 13:01:11;;;;;;;;;;;;;;;17.94;64.10;98304.44;5100030;28;20329;-65
2023/10/09 13:03:59;;;;;;;;;;;;;;;17.97;63.68;98300.19;5096567;28;19924;-64
2023/10/09 13:06:47;;;;;;;;;;;;;;;17.99;62.89;98289.66;5099723;28;20717;-64
2023/10/09 13:09:42;;;;;;;;;;;;;;;17.98;63.19;98291.59;5106836;28;19935;-64
2023/10/09 13:12:32;;;;;;;;;;;;;;;18.00;62.61;98281.06;5103530;28;19939;-63
2023/10/09 13:15:20;;;;;;;;;;;;;;;17.98;62.70;98288.06;5112145;27;19979;-64
2023/10/09 13:18:08;;;;;;;;;;;;;;;17.99;62.69;98292.41;5108686;27;19931;-64
2023/10/09 13:20:56;;;;;;;;;;;;;;;17.99;62.26;98284.16;5108799;27;19931;-64
2023/10/09 13:23:47;;;;;;;;;;;;;;;18.00;61.43;98285.75;5107815;27;20341;-63
2023/10/09 13:26:36;;;;;;;;;;;;;;;17.99;61.40;98289.66;5106543;27;19961;-63
2023/10/09 13:29:25;;;;;;;;;;;;;;;18.00;60.56;98274.75;5109762;27;19927;-63
2023/10/09 13:32:14;;;;;;;;;;;;;;;18.02;61.29;98272.47;5104975;28;20383;-63
2023/10/09 13:35:05;;;;;;;;;;;;;;;18.02;60.72;98273.25;5106853;27;19934;-64
2023/10/09 13:37:54;;;;;;;;;;;;;;;18.04;59.69;98284.69;5106897;27;19924;-64
2023/10/09 13:40:42;;;;;;;;;;;;;;;18.07;58.82;98291.44;5093030;27;19928;-64
2023/10/09 13:43:30;;;;;;;;;;;;;;;18.11;56.83;98275.03;5097961;28;19931;-63
2023/10/09 13:46:20;;;;;;;;;;;;;;;18.16;57.15;98278.31;5104392;28;20340;-63
2023/10/09 13:49:12;;;;;;;;;;;;;;;18.17;57.23;98274.44;5104840;28;19939;-64
2023/10/09 13:52:01;;;;;;;;;;;;;;;18.20;57.24;98265.47;5103030;28;20168;-63
2023/10/09 13:54:50;;;;;;;;;;;;;;;18.22;56.85;98265.94;5108602;27;20482;-63
2023/10/09 13:57:38;;;;;;;;;;;;;;;18.23;57.17;98267.53;5107614;27;19939;-63
2023/10/09 14:00:41;;;;;;;;;;;;;;;18.22;56.44;98257.69;5099714;28;20077;-64
2023/10/09 14:03:32;;;;;;;;;;;;;;;18.23;57.16;98267.53;5102065;27;19931;-64
2023/10/09 14:06:30;;;;;;;;;;;;;;;18.22;54.08;98271.44;5106435;27;19983;-63
2023/10/09 14:09:30;;;;;;;;;;;;;;;18.24;54.57;98271.88;5107201;27;20371;-64
2023/10/09 14:12:21;;;;;;;;;;;;;;;18.25;53.86;98273.47;5104622;28;20537;-63
2023/10/09 14:15:11;;;;;;;;;;;;;;;18.28;55.15;98286.53;5100495;28;19931;-64
2023/10/09 14:18:02;;;;;;;;;;;;;;;18.28;53.82;98297.53;5102020;28;19924;-64
2023/10/09 14:20:56;;;;;;;;;;;;;;;18.33;52.11;98290.97;5112462;27;19924;-63
2023/10/09 14:23:46;;;;;;;;;;;;;;;18.33;53.32;98283.50;5100251;28;19924;-65
2023/10/09 14:26:34;;;;;;;;;;;;;;;18.37;51.94;98288.28;5100304;28;19930;-64
2023/10/09 14:29:26;;;;;;;;;;;;;;;18.39;50.78;98299.75;5101891;27;20369;-64
2023/10/09 14:32:14;;;;;;;;;;;;;;;18.41;49.63;98302.94;5105550;28;20592;-65
2023/10/09 14:35:11;;;;;;;;;;;;;;;18.42;49.64;98305.34;5105637;27;19971;-65
2023/10/09 14:38:04;;;;;;;;;;;;;;;18.48;49.04;98305.88;5094599;27;19931;-64
2023/10/09 14:40:57;;;;;;;;;;;;;;;18.48;49.97;98319.63;5103100;27;19953;-65
2023/10/09 14:43:45;;;;;;;;;;;;;;;18.49;47.81;98330.31;5098419;28;19931;-64
2023/10/09 14:46:35;;;;;;;;;;;;;;;18.51;48.08;98316.97;5105116;27;19927;-64
2023/10/09 14:49:24;;;;;;;;;;;;;;;18.51;47.53;98305.19;5107531;27;19992;-64
2023/10/09 14:52:12;;;;;;;;;;;;;;;18.50;47.16;98304.38;5112138;27;19924;-65
2023/10/09 14:55:01;;;;;;;;;;;;;;;18.49;48.11;98313.00;5098341;27;20398;-64
2023/10/09 14:57:50;;;;;;;;;;;;;;;18.49;47.46;98315.75;5104084;27;19931;-65
2023/10/09 15:00:38;;;;;;;;;;;;;;;18.49;48.69;98315.75;5105793;27;19924;-64
2023/10/09 15:03:28;;;;;;;;;;;;;;;18.47;48.82;98310.56;5100586;27;19932;-64
2023/10/09 15:06:17;;;;;;;;;;;;;;;18.46;48.47;98306.22;5103821;27;19935;-64
2023/10/09 15:09:09;;;;;;;;;;;;;;;18.46;48.81;98313.69;5104022;28;19924;-64
2023/10/09 15:11:58;;;;;;;;;;;;;;;18.46;49.08;98330.19;5103126;28;19931;-64
2023/10/09 15:14:47;;;;;;;;;;;;;;;18.43;48.90;98339.13;5104871;28;20342;-64
2023/10/09 15:17:35;;;;;;;;;;;;;;;18.41;47.81;98335.97;5100235;28;20553;-64
2023/10/09 15:20:23;;;;;;;;;;;;;;;18.41;48.32;98327.69;5105315;28;19924;-63
2023/10/09 15:23:11;;;;;;;;;;;;;;;18.43;48.56;98328.13;5102797;28;20019;-64
2023/10/09 15:25:59;;;;;;;;;;;;;;;18.43;49.14;98330.88;5105422;28;20018;-64
2023/10/09 15:28:50;;;;;;;;;;;;;;;18.42;49.54;98330.09;5106775;28;20023;-63
2023/10/09 15:31:41;;;;;;;;;;;;;;;18.42;50.12;98334.81;5107151;28;20907;-64
2023/10/09 15:34:31;;;;;;;;;;;;;;;18.39;51.22;98341.03;5105709;28;20335;-64
2023/10/09 15:37:19;;;;;;;;;;;;;;;18.38;51.49;98339.44;5106570;28;19924;-64
2023/10/09 15:40:14;;;;;;;;;;;;;;;18.36;51.96;98347.22;5102349;28;19931;-64
2023/10/09 15:43:04;;;;;;;;;;;;;;;18.38;52.22;98347.69;5091863;28;19939;-65
2023/10/09 15:45:53;;;;;;;;;;;;;;;18.36;53.62;98349.97;5101330;28;20282;-64
2023/10/09 15:48:42;;;;;;;;;;;;;;;18.36;54.01;98344.47;5106428;28;20377;-64